Terminal Aerodrome Forecast
Issued by NWS North Platte, NE

Home | Current Version | Previous Version | Text Only | Print | Product List | Glossary On
Versions: 1 2 3 4 5 6 7 8 9 10 11 12 13 14 15 16 17
042
FTUS43 KLBF 301730
TAFVTN
TAF
KVTN 301730Z 3018/3118 10004KT P6SM OVC008
     FM302100 10006KT P6SM BKN015
     FM310000 10007KT P6SM SCT025 BKN250
     FM310600 11006KT P6SM BKN025
     FM310900 09005KT P6SM OVC015
     FM311200 08006KT P6SM BKN008 OVC015=

USA.gov is the U.S. government's official web portal to all federal, state and local government web resources and services.